sensor_id;sensor_type;location;lat;lon;timestamp;pressure;altitude;pressure_sealevel;temperature;humidity
69622;BME280;56841;55.964;37.674;2023-03-11T00:02:14;99081.41;;;-4.68;63.99
69622;BME280;56841;55.964;37.674;2023-03-11T00:04:40;99091.03;;;-4.71;63.93
69622;BME280;56841;55.964;37.674;2023-03-11T00:07:07;99087.53;;;-4.70;64.02
69622;BME280;56841;55.964;37.674;2023-03-11T00:09:34;99083.31;;;-4.71;63.95
69622;BME280;56841;55.964;37.674;2023-03-11T00:12:00;99079.22;;;-4.76;64.03
69622;BME280;56841;55.964;37.674;2023-03-11T00:14:26;99081.78;;;-4.76;63.99
69622;BME280;56841;55.964;37.674;2023-03-11T00:16:52;99076.16;;;-4.82;64.13
69622;BME280;56841;55.964;37.674;2023-03-11T00:19:18;99076.09;;;-4.81;64.30
69622;BME280;56841;55.964;37.674;2023-03-11T00:21:43;99079.88;;;-4.72;64.18
69622;BME280;56841;55.964;37.674;2023-03-11T00:24:09;99077.97;;;-4.68;63.89
69622;BME280;56841;55.964;37.674;2023-03-11T00:26:35;99073.84;;;-4.71;64.25
69622;BME280;56841;55.964;37.674;2023-03-11T00:29:01;99072.41;;;-4.77;64.15
69622;BME280;56841;55.964;37.674;2023-03-11T00:31:27;99067.09;;;-4.73;64.28
69622;BME280;56841;55.964;37.674;2023-03-11T00:33:53;99060.84;;;-4.69;64.28
69622;BME280;56841;55.964;37.674;2023-03-11T00:36:30;99078.88;;;-4.69;64.32
69622;BME280;56841;55.964;37.674;2023-03-11T00:38:57;99078.16;;;-4.71;64.39
69622;BME280;56841;55.964;37.674;2023-03-11T00:41:23;99070.94;;;-4.65;64.53
69622;BME280;56841;55.964;37.674;2023-03-11T00:43:49;99082.56;;;-4.73;64.65
69622;BME280;56841;55.964;37.674;2023-03-11T00:46:15;99074.16;;;-4.77;64.28
69622;BME280;56841;55.964;37.674;2023-03-11T00:48:41;99078.50;;;-4.78;64.73
69622;BME280;56841;55.964;37.674;2023-03-11T00:51:10;99077.66;;;-4.78;64.41
69622;BME280;56841;55.964;37.674;2023-03-11T00:53:38;99080.47;;;-4.83;64.63
69622;BME280;56841;55.964;37.674;2023-03-11T00:56:11;99083.66;;;-4.78;64.51
69622;BME280;56841;55.964;37.674;2023-03-11T00:58:40;99075.09;;;-4.78;64.71
69622;BME280;56841;55.964;37.674;2023-03-11T01:01:09;99079.59;;;-4.82;64.76
69622;BME280;56841;55.964;37.674;2023-03-11T01:03:35;99074.00;;;-4.90;65.10
69622;BME280;56841;55.964;37.674;2023-03-11T01:06:01;99072.69;;;-4.81;65.41
69622;BME280;56841;55.964;37.674;2023-03-11T01:08:27;99072.75;;;-4.83;65.43
69622;BME280;56841;55.964;37.674;2023-03-11T01:10:54;99078.25;;;-4.89;65.59
69622;BME280;56841;55.964;37.674;2023-03-11T01:13:20;99073.19;;;-4.90;65.40
69622;BME280;56841;55.964;37.674;2023-03-11T01:15:47;99073.75;;;-5.01;65.62
69622;BME280;56841;55.964;37.674;2023-03-11T01:18:13;99069.94;;;-4.94;66.16
69622;BME280;56841;55.964;37.674;2023-03-11T01:20:40;99066.44;;;-4.93;65.80
69622;BME280;56841;55.964;37.674;2023-03-11T01:23:07;99077.16;;;-4.85;65.67
69622;BME280;56841;55.964;37.674;2023-03-11T01:25:33;99069.84;;;-4.77;65.67
69622;BME280;56841;55.964;37.674;2023-03-11T01:27:59;99066.28;;;-4.74;65.47
69622;BME280;56841;55.964;37.674;2023-03-11T01:30:27;99065.78;;;-4.81;65.43
69622;BME280;56841;55.964;37.674;2023-03-11T01:32:54;99077.16;;;-4.85;66.11
69622;BME280;56841;55.964;37.674;2023-03-11T01:35:22;99074.44;;;-4.82;65.78
69622;BME280;56841;55.964;37.674;2023-03-11T01:37:48;99066.50;;;-4.79;65.71
69622;BME280;56841;55.964;37.674;2023-03-11T01:42:59;99067.84;;;-4.71;65.59
69622;BME280;56841;55.964;37.674;2023-03-11T01:48:03;99068.69;;;-4.87;65.99
69622;BME280;56841;55.964;37.674;2023-03-11T01:50:39;99064.34;;;-4.86;66.14
69622;BME280;56841;55.964;37.674;2023-03-11T01:53:06;99071.75;;;-4.96;66.22
69622;BME280;56841;55.964;37.674;2023-03-11T01:55:33;99068.28;;;-4.95;66.25
69622;BME280;56841;55.964;37.674;2023-03-11T01:58:01;99081.16;;;-4.95;66.55
69622;BME280;56841;55.964;37.674;2023-03-11T02:00:28;99077.59;;;-5.08;66.21
69622;BME280;56841;55.964;37.674;2023-03-11T02:02:57;99069.53;;;-5.02;66.65
69622;BME280;56841;55.964;37.674;2023-03-11T02:05:24;99061.22;;;-5.07;66.38
69622;BME280;56841;55.964;37.674;2023-03-11T02:07:52;99061.38;;;-5.10;66.73
69622;BME280;56841;55.964;37.674;2023-03-11T02:10:21;99072.66;;;-5.13;66.84
69622;BME280;56841;55.964;37.674;2023-03-11T02:12:47;99076.81;;;-5.10;67.02
69622;BME280;56841;55.964;37.674;2023-03-11T02:15:21;99071.00;;;-5.14;66.59
69622;BME280;56841;55.964;37.674;2023-03-11T02:17:49;99063.78;;;-5.07;66.80
69622;BME280;56841;55.964;37.674;2023-03-11T02:23:10;99070.03;;;-5.11;66.64
69622;BME280;56841;55.964;37.674;2023-03-11T02:25:51;99075.59;;;-5.19;66.98
69622;BME280;56841;55.964;37.674;2023-03-11T02:28:19;99071.09;;;-5.15;66.91
69622;BME280;56841;55.964;37.674;2023-03-11T02:30:46;99070.34;;;-5.17;66.99
69622;BME280;56841;55.964;37.674;2023-03-11T02:33:14;99066.84;;;-5.16;66.97
69622;BME280;56841;55.964;37.674;2023-03-11T02:35:44;99059.22;;;-5.18;67.05
69622;BME280;56841;55.964;37.674;2023-03-11T02:38:09;99063.38;;;-5.15;66.90
69622;BME280;56841;55.964;37.674;2023-03-11T02:40:48;99069.50;;;-5.18;67.15
69622;BME280;56841;55.964;37.674;2023-03-11T02:43:21;99057.72;;;-5.22;67.10
69622;BME280;56841;55.964;37.674;2023-03-11T02:45:49;99057.31;;;-5.14;67.19
69622;BME280;56841;55.964;37.674;2023-03-11T02:48:15;99063.22;;;-5.12;66.82
69622;BME280;56841;55.964;37.674;2023-03-11T02:50:43;99062.69;;;-5.03;66.42
69622;BME280;56841;55.964;37.674;2023-03-11T02:53:10;99055.13;;;-5.06;67.24
69622;BME280;56841;55.964;37.674;2023-03-11T02:55:36;99060.72;;;-4.98;66.52
69622;BME280;56841;55.964;37.674;2023-03-11T02:58:02;99063.13;;;-4.95;66.11
69622;BME280;56841;55.964;37.674;2023-03-11T03:00:28;99057.22;;;-4.97;66.20
69622;BME280;56841;55.964;37.674;2023-03-11T03:03:00;99050.50;;;-5.00;66.78
69622;BME280;56841;55.964;37.674;2023-03-11T03:05:27;99052.84;;;-4.95;66.44
69622;BME280;56841;55.964;37.674;2023-03-11T03:07:52;99048.00;;;-5.01;66.41
69622;BME280;56841;55.964;37.674;2023-03-11T03:10:20;99053.00;;;-4.98;66.11
69622;BME280;56841;55.964;37.674;2023-03-11T03:12:46;99060.41;;;-4.92;66.33
69622;BME280;56841;55.964;37.674;2023-03-11T03:15:12;99054.72;;;-4.83;66.17
69622;BME280;56841;55.964;37.674;2023-03-11T03:17:40;99063.28;;;-4.82;66.00
69622;BME280;56841;55.964;37.674;2023-03-11T03:20:09;99062.03;;;-4.75;66.05
69622;BME280;56841;55.964;37.674;2023-03-11T03:22:40;99064.53;;;-4.73;65.73
69622;BME280;56841;55.964;37.674;2023-03-11T03:25:07;99053.72;;;-4.64;65.51
69622;BME280;56841;55.964;37.674;2023-03-11T03:27:34;99062.44;;;-4.67;65.74
69622;BME280;56841;55.964;37.674;2023-03-11T03:30:00;99056.97;;;-4.77;65.57
69622;BME280;56841;55.964;37.674;2023-03-11T03:32:27;99057.22;;;-4.81;66.06
69622;BME280;56841;55.964;37.674;2023-03-11T03:34:52;99061.78;;;-4.86;66.05
69622;BME280;56841;55.964;37.674;2023-03-11T03:37:26;99060.28;;;-4.90;66.47
69622;BME280;56841;55.964;37.674;2023-03-11T03:39:52;99060.47;;;-4.93;66.53
69622;BME280;56841;55.964;37.674;2023-03-11T03:42:19;99060.22;;;-4.89;66.63
69622;BME280;56841;55.964;37.674;2023-03-11T03:44:45;99055.81;;;-4.87;66.36
69622;BME280;56841;55.964;37.674;2023-03-11T03:47:11;99052.41;;;-4.87;67.04
69622;BME280;56841;55.964;37.674;2023-03-11T03:49:37;99055.09;;;-4.89;66.56
69622;BME280;56841;55.964;37.674;2023-03-11T03:52:06;99051.66;;;-4.89;66.92
69622;BME280;56841;55.964;37.674;2023-03-11T03:54:33;99056.91;;;-4.91;67.12
69622;BME280;56841;55.964;37.674;2023-03-11T03:57:00;99045.00;;;-4.93;67.26
69622;BME280;56841;55.964;37.674;2023-03-11T03:59:29;99055.47;;;-4.96;67.43
69622;BME280;56841;55.964;37.674;2023-03-11T04:01:56;99053.56;;;-4.93;67.00
69622;BME280;56841;55.964;37.674;2023-03-11T04:04:24;99040.34;;;-4.87;67.27
69622;BME280;56841;55.964;37.674;2023-03-11T04:06:50;99042.22;;;-4.89;67.39
69622;BME280;56841;55.964;37.674;2023-03-11T04:09:17;99038.47;;;-4.99;67.35
69622;BME280;56841;55.964;37.674;2023-03-11T04:11:44;99042.53;;;-4.95;67.60
69622;BME280;56841;55.964;37.674;2023-03-11T04:14:12;99037.94;;;-4.90;67.80
69622;BME280;56841;55.964;37.674;2023-03-11T04:16:44;99029.50;;;-4.92;67.76
69622;BME280;56841;55.964;37.674;2023-03-11T04:19:12;99042.66;;;-4.82;67.49
69622;BME280;56841;55.964;37.674;2023-03-11T04:21:38;99040.28;;;-4.85;67.98
69622;BME280;56841;55.964;37.674;2023-03-11T04:24:04;99028.63;;;-4.77;68.17
69622;BME280;56841;55.964;37.674;2023-03-11T04:26:33;99026.22;;;-4.80;68.20
69622;BME280;56841;55.964;37.674;2023-03-11T04:29:00;99027.53;;;-4.72;68.33
69622;BME280;56841;55.964;37.674;2023-03-11T04:31:28;99021.13;;;-4.65;68.19
69622;BME280;56841;55.964;37.674;2023-03-11T04:33:55;99017.72;;;-4.66;68.66
69622;BME280;56841;55.964;37.674;2023-03-11T04:36:20;99008.81;;;-4.60;68.30
69622;BME280;56841;55.964;37.674;2023-03-11T04:38:46;99013.31;;;-4.64;68.91
69622;BME280;56841;55.964;37.674;2023-03-11T04:41:13;99003.41;;;-4.56;69.50
69622;BME280;56841;55.964;37.674;2023-03-11T04:43:40;99002.31;;;-4.52;68.75
69622;BME280;56841;55.964;37.674;2023-03-11T04:46:06;99001.66;;;-4.55;69.25
69622;BME280;56841;55.964;37.674;2023-03-11T04:48:32;98997.16;;;-4.52;69.67
69622;BME280;56841;55.964;37.674;2023-03-11T04:50:58;99005.47;;;-4.46;69.57
69622;BME280;56841;55.964;37.674;2023-03-11T04:53:25;99000.97;;;-4.43;69.68
69622;BME280;56841;55.964;37.674;2023-03-11T04:55:51;99001.88;;;-4.44;69.84
69622;BME280;56841;55.964;37.674;2023-03-11T04:58:19;99005.19;;;-4.42;70.38
69622;BME280;56841;55.964;37.674;2023-03-11T05:00:46;98997.63;;;-4.45;70.37
69622;BME280;56841;55.964;37.674;2023-03-11T05:03:13;99000.63;;;-4.37;70.97
69622;BME280;56841;55.964;37.674;2023-03-11T05:05:39;98990.84;;;-4.32;70.67
69622;BME280;56841;55.964;37.674;2023-03-11T05:08:06;98994.56;;;-4.21;70.70
69622;BME280;56841;55.964;37.674;2023-03-11T05:10:32;99001.09;;;-4.16;70.63
69622;BME280;56841;55.964;37.674;2023-03-11T05:13:02;98993.38;;;-4.16;70.76
69622;BME280;56841;55.964;37.674;2023-03-11T05:15:32;98996.75;;;-4.30;71.33
69622;BME280;56841;55.964;37.674;2023-03-11T05:18:01;98987.72;;;-4.37;71.08
69622;BME280;56841;55.964;37.674;2023-03-11T05:20:27;98999.16;;;-4.26;71.65
69622;BME280;56841;55.964;37.674;2023-03-11T05:22:54;98989.97;;;-4.16;71.44
69622;BME280;56841;55.964;37.674;2023-03-11T05:25:19;98988.69;;;-4.09;71.53
69622;BME280;56841;55.964;37.674;2023-03-11T05:27:45;98991.97;;;-4.07;71.08
69622;BME280;56841;55.964;37.674;2023-03-11T05:30:12;98988.16;;;-4.00;70.67
69622;BME280;56841;55.964;37.674;2023-03-11T05:32:41;98981.78;;;-3.94;70.77
69622;BME280;56841;55.964;37.674;2023-03-11T05:35:07;98983.81;;;-3.99;70.55
69622;BME280;56841;55.964;37.674;2023-03-11T05:37:33;98973.69;;;-3.88;70.44
69622;BME280;56841;55.964;37.674;2023-03-11T05:40:01;98990.72;;;-3.86;70.76
69622;BME280;56841;55.964;37.674;2023-03-11T05:42:32;98979.41;;;-3.69;70.48
69622;BME280;56841;55.964;37.674;2023-03-11T05:44:57;98970.25;;;-3.60;70.26
69622;BME280;56841;55.964;37.674;2023-03-11T05:47:24;98978.47;;;-3.68;70.79
69622;BME280;56841;55.964;37.674;2023-03-11T05:49:50;98975.34;;;-3.59;70.41
69622;BME280;56841;55.964;37.674;2023-03-11T05:52:17;98971.06;;;-3.60;70.77
69622;BME280;56841;55.964;37.674;2023-03-11T05:54:43;98987.00;;;-3.53;70.79
69622;BME280;56841;55.964;37.674;2023-03-11T05:57:09;98980.84;;;-3.50;71.08
69622;BME280;56841;55.964;37.674;2023-03-11T05:59:36;98982.88;;;-3.55;70.47
69622;BME280;56841;55.964;37.674;2023-03-11T06:02:04;98972.16;;;-3.49;70.96
69622;BME280;56841;55.964;37.674;2023-03-11T06:04:29;98979.81;;;-3.48;71.20
69622;BME280;56841;55.964;37.674;2023-03-11T06:06:57;98976.50;;;-3.50;70.74
69622;BME280;56841;55.964;37.674;2023-03-11T06:09:26;98971.03;;;-3.45;70.85
69622;BME280;56841;55.964;37.674;2023-03-11T06:11:52;98970.63;;;-3.52;70.93
69622;BME280;56841;55.964;37.674;2023-03-11T06:14:21;98967.41;;;-3.28;71.76
69622;BME280;56841;55.964;37.674;2023-03-11T06:16:49;98960.84;;;-3.20;70.98
69622;BME280;56841;55.964;37.674;2023-03-11T06:19:17;98968.84;;;-3.10;70.47
69622;BME280;56841;55.964;37.674;2023-03-11T06:21:47;98970.94;;;-3.02;70.20
69622;BME280;56841;55.964;37.674;2023-03-11T06:24:13;98958.66;;;-2.99;69.93
69622;BME280;56841;55.964;37.674;2023-03-11T06:26:39;98962.97;;;-2.72;69.15
69622;BME280;56841;55.964;37.674;2023-03-11T06:29:10;98956.78;;;-2.70;69.24
69622;BME280;56841;55.964;37.674;2023-03-11T06:31:37;98965.19;;;-2.66;68.73
69622;BME280;56841;55.964;37.674;2023-03-11T06:34:08;98957.50;;;-2.68;68.37
69622;BME280;56841;55.964;37.674;2023-03-11T06:36:34;98964.88;;;-2.62;68.26
69622;BME280;56841;55.964;37.674;2023-03-11T06:39:00;98957.63;;;-2.69;68.38
69622;BME280;56841;55.964;37.674;2023-03-11T06:41:27;98962.44;;;-2.77;68.70
69622;BME280;56841;55.964;37.674;2023-03-11T06:43:53;98947.09;;;-2.66;68.72
69622;BME280;56841;55.964;37.674;2023-03-11T06:46:21;98953.66;;;-2.75;68.40
69622;BME280;56841;55.964;37.674;2023-03-11T06:48:48;98964.63;;;-2.71;68.34
69622;BME280;56841;55.964;37.674;2023-03-11T06:51:19;98944.00;;;-2.58;69.32
69622;BME280;56841;55.964;37.674;2023-03-11T06:53:49;98941.94;;;-2.41;68.47
69622;BME280;56841;55.964;37.674;2023-03-11T06:56:18;98951.78;;;-2.46;68.05
69622;BME280;56841;55.964;37.674;2023-03-11T06:58:48;98954.63;;;-2.50;68.54
69622;BME280;56841;55.964;37.674;2023-03-11T07:01:23;98950.31;;;-2.37;67.42
69622;BME280;56841;55.964;37.674;2023-03-11T07:03:51;98949.31;;;-2.22;67.76
69622;BME280;56841;55.964;37.674;2023-03-11T07:06:21;98943.06;;;-2.19;67.30
69622;BME280;56841;55.964;37.674;2023-03-11T07:08:49;98934.91;;;-2.13;67.25
69622;BME280;56841;55.964;37.674;2023-03-11T07:11:18;98942.28;;;-2.32;68.15
69622;BME280;56841;55.964;37.674;2023-03-11T07:13:45;98938.44;;;-2.27;67.69
69622;BME280;56841;55.964;37.674;2023-03-11T07:16:13;98929.97;;;-2.29;67.58
69622;BME280;56841;55.964;37.674;2023-03-11T07:18:41;98930.38;;;-2.35;68.25
69622;BME280;56841;55.964;37.674;2023-03-11T07:21:08;98935.00;;;-2.27;69.10
69622;BME280;56841;55.964;37.674;2023-03-11T07:23:34;98915.56;;;-2.20;68.50
69622;BME280;56841;55.964;37.674;2023-03-11T07:26:00;98927.78;;;-2.22;68.50
69622;BME280;56841;55.964;37.674;2023-03-11T07:28:27;98939.16;;;-2.25;68.57
69622;BME280;56841;55.964;37.674;2023-03-11T07:30:54;98926.22;;;-2.25;69.22
69622;BME280;56841;55.964;37.674;2023-03-11T07:33:21;98926.84;;;-2.21;68.92
69622;BME280;56841;55.964;37.674;2023-03-11T07:35:48;98926.19;;;-2.50;69.14
69622;BME280;56841;55.964;37.674;2023-03-11T07:38:15;98926.69;;;-2.71;70.22
69622;BME280;56841;55.964;37.674;2023-03-11T07:40:42;98924.66;;;-2.53;69.59
69622;BME280;56841;55.964;37.674;2023-03-11T07:43:09;98911.22;;;-2.58;69.95
69622;BME280;56841;55.964;37.674;2023-03-11T07:45:35;98900.97;;;-2.47;69.83
69622;BME280;56841;55.964;37.674;2023-03-11T07:48:01;98903.69;;;-2.48;69.76
69622;BME280;56841;55.964;37.674;2023-03-11T07:50:27;98900.56;;;-2.28;70.17
69622;BME280;56841;55.964;37.674;2023-03-11T07:52:52;98896.53;;;-2.19;69.53
69622;BME280;56841;55.964;37.674;2023-03-11T07:55:18;98885.22;;;-2.05;69.31
69622;BME280;56841;55.964;37.674;2023-03-11T07:57:45;98900.53;;;-1.89;68.33
69622;BME280;56841;55.964;37.674;2023-03-11T08:00:12;98869.88;;;-1.83;67.67
69622;BME280;56841;55.964;37.674;2023-03-11T08:02:38;98877.00;;;-1.74;67.81
69622;BME280;56841;55.964;37.674;2023-03-11T08:05:04;98868.84;;;-1.80;67.79
69622;BME280;56841;55.964;37.674;2023-03-11T08:07:31;98876.13;;;-1.61;67.13
69622;BME280;56841;55.964;37.674;2023-03-11T08:09:57;98874.22;;;-1.47;66.91
69622;BME280;56841;55.964;37.674;2023-03-11T08:12:23;98860.94;;;-1.42;66.68
69622;BME280;56841;55.964;37.674;2023-03-11T08:14:49;98839.09;;;-1.27;65.88
69622;BME280;56841;55.964;37.674;2023-03-11T08:17:14;98848.91;;;-1.19;66.56
69622;BME280;56841;55.964;37.674;2023-03-11T08:19:40;98849.19;;;-1.35;65.57
69622;BME280;56841;55.964;37.674;2023-03-11T08:22:06;98844.25;;;-1.38;65.73
69622;BME280;56841;55.964;37.674;2023-03-11T08:24:32;98857.91;;;-1.36;66.20
69622;BME280;56841;55.964;37.674;2023-03-11T08:26:58;98837.06;;;-1.34;67.01
69622;BME280;56841;55.964;37.674;2023-03-11T08:29:25;98837.06;;;-1.34;66.67
69622;BME280;56841;55.964;37.674;2023-03-11T08:31:50;98826.06;;;-1.25;66.85
69622;BME280;56841;55.964;37.674;2023-03-11T08:34:16;98815.78;;;-1.27;66.37
69622;BME280;56841;55.964;37.674;2023-03-11T08:36:42;98821.94;;;-1.52;66.92
69622;BME280;56841;55.964;37.674;2023-03-11T08:39:08;98818.72;;;-1.31;67.42
69622;BME280;56841;55.964;37.674;2023-03-11T08:41:34;98808.19;;;-1.41;67.19
69622;BME280;56841;55.964;37.674;2023-03-11T08:44:00;98820.97;;;-1.51;67.08
69622;BME280;56841;55.964;37.674;2023-03-11T08:46:28;98815.47;;;-1.22;66.54
69622;BME280;56841;55.964;37.674;2023-03-11T08:48:55;98811.63;;;-1.05;66.34
69622;BME280;56841;55.964;37.674;2023-03-11T08:51:23;98806.19;;;-1.13;65.17
69622;BME280;56841;55.964;37.674;2023-03-11T08:53:50;98810.59;;;-1.27;65.60
69622;BME280;56841;55.964;37.674;2023-03-11T08:56:17;98818.56;;;-1.41;65.90
69622;BME280;56841;55.964;37.674;2023-03-11T08:58:43;98809.13;;;-1.18;66.38
69622;BME280;56841;55.964;37.674;2023-03-11T09:01:11;98807.72;;;-1.11;65.59
69622;BME280;56841;55.964;37.674;2023-03-11T09:03:38;98804.28;;;-1.23;65.82
69622;BME280;56841;55.964;37.674;2023-03-11T09:06:07;98797.34;;;-1.11;65.67
69622;BME280;56841;55.964;37.674;2023-03-11T09:08:33;98795.97;;;-1.04;65.44
69622;BME280;56841;55.964;37.674;2023-03-11T09:10:59;98784.84;;;-1.17;65.93
69622;BME280;56841;55.964;37.674;2023-03-11T09:13:25;98783.66;;;-1.24;65.35
69622;BME280;56841;55.964;37.674;2023-03-11T09:15:52;98781.94;;;-1.48;65.61
69622;BME280;56841;55.964;37.674;2023-03-11T09:18:18;98777.22;;;-1.18;65.70
69622;BME280;56841;55.964;37.674;2023-03-11T09:20:45;98786.53;;;-1.05;65.87
69622;BME280;56841;55.964;37.674;2023-03-11T09:23:11;98783.22;;;-1.18;64.66
69622;BME280;56841;55.964;37.674;2023-03-11T09:25:38;98780.75;;;-1.20;64.65
69622;BME280;56841;55.964;37.674;2023-03-11T09:28:03;98783.50;;;-1.34;65.21
69622;BME280;56841;55.964;37.674;2023-03-11T09:30:29;98783.38;;;-1.44;65.57
69622;BME280;56841;55.964;37.674;2023-03-11T09:32:55;98777.72;;;-1.37;65.87
69622;BME280;56841;55.964;37.674;2023-03-11T09:35:21;98771.22;;;-1.19;66.17
69622;BME280;56841;55.964;37.674;2023-03-11T09:37:46;98776.00;;;-1.26;66.26
69622;BME280;56841;55.964;37.674;2023-03-11T09:40:17;98770.34;;;-1.31;65.68
69622;BME280;56841;55.964;37.674;2023-03-11T09:43:06;98770.84;;;-1.14;65.75
69622;BME280;56841;55.964;37.674;2023-03-11T09:45:31;98765.38;;;-1.34;65.94
69622;BME280;56841;55.964;37.674;2023-03-11T09:48:03;98759.09;;;-1.54;66.76
69622;BME280;56841;55.964;37.674;2023-03-11T09:50:56;98758.38;;;-1.56;67.43
69622;BME280;56841;55.964;37.674;2023-03-11T09:53:51;98752.88;;;-1.75;67.86
69622;BME280;56841;55.964;37.674;2023-03-11T09:56:20;98744.13;;;-1.85;69.18
69622;BME280;56841;55.964;37.674;2023-03-11T09:59:02;98743.47;;;-2.00;70.02
69622;BME280;56841;55.964;37.674;2023-03-11T10:01:33;98739.88;;;-2.10;71.54
69622;BME280;56841;55.964;37.674;2023-03-11T10:04:31;98737.31;;;-2.23;72.76
69622;BME280;56841;55.964;37.674;2023-03-11T10:07:01;98741.19;;;-2.29;72.73
69622;BME280;56841;55.964;37.674;2023-03-11T10:09:53;98730.09;;;-2.18;72.79
69622;BME280;56841;55.964;37.674;2023-03-11T10:26:56;98684.69;;;-1.63;71.88
69622;BME280;56841;55.964;37.674;2023-03-11T10:29:55;98684.72;;;-1.52;71.16
69622;BME280;56841;55.964;37.674;2023-03-11T10:32:38;98674.91;;;-1.71;70.77
69622;BME280;56841;55.964;37.674;2023-03-11T10:35:17;98674.22;;;-1.61;71.16
69622;BME280;56841;55.964;37.674;2023-03-11T10:37:52;98657.28;;;-1.54;70.22
69622;BME280;56841;55.964;37.674;2023-03-11T10:40:33;98662.69;;;-1.57;70.16
69622;BME280;56841;55.964;37.674;2023-03-11T10:43:02;98655.88;;;-1.47;70.17
69622;BME280;56841;55.964;37.674;2023-03-11T10:45:35;98656.72;;;-1.35;69.92
69622;BME280;56841;55.964;37.674;2023-03-11T10:48:01;98643.56;;;-1.32;69.25
69622;BME280;56841;55.964;37.674;2023-03-11T10:50:26;98640.25;;;-1.46;69.34
69622;BME280;56841;55.964;37.674;2023-03-11T10:53:16;98635.06;;;-1.34;69.28
69622;BME280;56841;55.964;37.674;2023-03-11T10:55:46;98638.13;;;-1.40;69.30
69622;BME280;56841;55.964;37.674;2023-03-11T10:58:15;98627.66;;;-1.50;69.49
69622;BME280;56841;55.964;37.674;2023-03-11T11:00:41;98627.75;;;-1.52;69.28
69622;BME280;56841;55.964;37.674;2023-03-11T11:03:23;98637.78;;;-1.25;69.81
69622;BME280;56841;55.964;37.674;2023-03-11T11:08:44;98617.16;;;-1.49;69.16
69622;BME280;56841;55.964;37.674;2023-03-11T11:11:22;98615.03;;;-1.55;69.90
69622;BME280;56841;55.964;37.674;2023-03-11T11:13:56;98616.81;;;-1.55;70.27
69622;BME280;56841;55.964;37.674;2023-03-11T11:16:22;98597.63;;;-1.53;70.08
69622;BME280;56841;55.964;37.674;2023-03-11T11:18:53;98593.59;;;-1.68;69.60
69622;BME280;56841;55.964;37.674;2023-03-11T11:21:33;98587.38;;;-1.65;70.30
69622;BME280;56841;55.964;37.674;2023-03-11T11:24:20;98584.19;;;-1.69;70.00
69622;BME280;56841;55.964;37.674;2023-03-11T11:27:20;98582.19;;;-1.77;70.49
69622;BME280;56841;55.964;37.674;2023-03-11T11:30:13;98572.06;;;-1.80;70.75
69622;BME280;56841;55.964;37.674;2023-03-11T11:32:35;98583.25;;;-1.68;70.46
69622;BME280;56841;55.964;37.674;2023-03-11T11:35:02;98582.19;;;-1.77;70.72
69622;BME280;56841;55.964;37.674;2023-03-11T11:37:31;98571.69;;;-1.98;70.85
69622;BME280;56841;55.964;37.674;2023-03-11T11:40:00;98576.63;;;-1.95;71.14
69622;BME280;56841;55.964;37.674;2023-03-11T11:42:34;98576.84;;;-1.98;70.94
69622;BME280;56841;55.964;37.674;2023-03-11T11:45:09;98566.03;;;-1.92;71.02
69622;BME280;56841;55.964;37.674;2023-03-11T11:47:40;98556.63;;;-1.81;70.70
69622;BME280;56841;55.964;37.674;2023-03-11T11:53:14;98564.31;;;-1.80;70.41
69622;BME280;56841;55.964;37.674;2023-03-11T11:55:47;98555.59;;;-1.68;70.44
69622;BME280;56841;55.964;37.674;2023-03-11T11:58:13;98553.50;;;-1.74;70.29
69622;BME280;56841;55.964;37.674;2023-03-11T12:00:57;98536.69;;;-1.46;70.05
69622;BME280;56841;55.964;37.674;2023-03-11T12:03:37;98535.25;;;-1.38;69.97
69622;BME280;56841;55.964;37.674;2023-03-11T12:09:34;98518.06;;;-1.51;69.56
69622;BME280;56841;55.964;37.674;2023-03-11T12:12:10;98524.31;;;-1.64;69.90
69622;BME280;56841;55.964;37.674;2023-03-11T12:14:48;98508.22;;;-1.57;70.38
69622;BME280;56841;55.964;37.674;2023-03-11T12:17:19;98505.84;;;-1.60;69.98
69622;BME280;56841;55.964;37.674;2023-03-11T12:27:34;98507.25;;;-1.78;70.99
69622;BME280;56841;55.964;37.674;2023-03-11T12:30:13;98505.81;;;-1.71;71.18
69622;BME280;56841;55.964;37.674;2023-03-11T12:32:53;98501.16;;;-1.77;71.02
69622;BME280;56841;55.964;37.674;2023-03-11T12:35:23;98497.97;;;-1.81;71.15
69622;BME280;56841;55.964;37.674;2023-03-11T12:37:58;98491.03;;;-1.80;71.50
69622;BME280;56841;55.964;37.674;2023-03-11T12:46:12;98494.06;;;-1.75;71.17
69622;BME280;56841;55.964;37.674;2023-03-11T12:49:08;98491.94;;;-1.81;71.05
69622;BME280;56841;55.964;37.674;2023-03-11T12:54:32;98491.25;;;-1.61;71.35
69622;BME280;56841;55.964;37.674;2023-03-11T13:03:23;98483.03;;;-1.66;71.63
69622;BME280;56841;55.964;37.674;2023-03-11T13:06:20;98470.44;;;-1.71;71.59
69622;BME280;56841;55.964;37.674;2023-03-11T13:14:33;98475.34;;;-1.68;71.92
69622;BME280;56841;55.964;37.674;2023-03-11T13:19:52;98467.03;;;-1.60;72.02
69622;BME280;56841;55.964;37.674;2023-03-11T13:22:41;98464.66;;;-1.63;71.59
69622;BME280;56841;55.964;37.674;2023-03-11T13:27:57;98453.16;;;-1.70;71.76
69622;BME280;56841;55.964;37.674;2023-03-11T13:30:31;98441.59;;;-1.66;71.80
69622;BME280;56841;55.964;37.674;2023-03-11T13:33:04;98436.69;;;-1.80;72.20
69622;BME280;56841;55.964;37.674;2023-03-11T13:39:01;98424.91;;;-1.73;72.34
69622;BME280;56841;55.964;37.674;2023-03-11T13:41:40;98420.09;;;-1.89;72.60
69622;BME280;56841;55.964;37.674;2023-03-11T13:44:12;98412.69;;;-1.82;72.81
69622;BME280;56841;55.964;37.674;2023-03-11T13:46:41;98411.72;;;-1.81;72.30
69622;BME280;56841;55.964;37.674;2023-03-11T13:52:07;98399.97;;;-1.85;73.12
69622;BME280;56841;55.964;37.674;2023-03-11T13:54:41;98403.03;;;-1.92;73.28
69622;BME280;56841;55.964;37.674;2023-03-11T13:57:27;98402.34;;;-1.94;73.55
69622;BME280;56841;55.964;37.674;2023-03-11T13:59:54;98396.34;;;-1.94;73.11
69622;BME280;56841;55.964;37.674;2023-03-11T14:02:27;98390.81;;;-2.01;73.76
69622;BME280;56841;55.964;37.674;2023-03-11T14:04:57;98391.28;;;-2.07;73.62
69622;BME280;56841;55.964;37.674;2023-03-11T14:07:31;98380.72;;;-2.15;74.22
69622;BME280;56841;55.964;37.674;2023-03-11T14:12:44;98387.16;;;-2.09;74.18
69622;BME280;56841;55.964;37.674;2023-03-11T14:15:30;98392.94;;;-2.06;74.16
69622;BME280;56841;55.964;37.674;2023-03-11T14:18:34;98385.06;;;-2.04;74.02